PROVE SSTB-SSPI
Flight info
| Callsign | PROVE |
|---|---|
| Flight time | N/A |
| Altitude | 6500 |
| Route | DCT 2528S05039W 2431S05139W 2400S05221W 2341S05238W DCT |
| Aircraft | S22T/L-SDGRY/S |
Departure
| Time | 2026-05-07 01:59 |
|---|---|
| Airport | Três Barras Airport (SSTB) |
Arrival
| Time | N/A |
|---|---|
| Airport | Paranavaí Airport (SSPI) |
| Time | Latitude | Longitude | Altitude | Speed | Heading |
|---|---|---|---|---|---|
| 2026-05-07 01:48 | -26.13001 | -50.30984 | 2551 ft | 0 kts | 18° |
| 2026-05-07 01:58 | -26.13008 | -50.30990 | 2548 ft | 7 kts | 108° |
| 2026-05-07 01:58 | -26.13043 | -50.30902 | 2550 ft | 15 kts | 111° |
| 2026-05-07 01:58 | -26.13088 | -50.30885 | 2552 ft | 18 kts | 197° |
| 2026-05-07 01:58 | -26.13466 | -50.31038 | 2562 ft | 91 kts | 200° |
| 2026-05-07 01:59 | -26.14159 | -50.31281 | 2791 ft | 112 kts | 195° |
| 2026-05-07 01:59 | -26.14914 | -50.31638 | 2990 ft | 132 kts | 221° |
| 2026-05-07 01:59 | -26.15248 | -50.32609 | 3167 ft | 141 kts | 278° |
| 2026-05-07 01:59 | -26.14746 | -50.33470 | 3482 ft | 133 kts | 330° |
| 2026-05-07 02:00 | -26.13903 | -50.33853 | 3769 ft | 130 kts | 345° |
| 2026-05-07 02:00 | -26.13043 | -50.34179 | 4067 ft | 131 kts | 343° |
| 2026-05-07 02:00 | -26.12184 | -50.34532 | 4376 ft | 132 kts | 341° |
| 2026-05-07 02:00 | -26.11326 | -50.34909 | 4656 ft | 133 kts | 340° |
| 2026-05-07 02:01 | -26.10471 | -50.35303 | 4955 ft | 133 kts | 339° |
| 2026-05-07 02:01 | -26.09611 | -50.35699 | 5273 ft | 134 kts | 339° |
| 2026-05-07 02:01 | -26.08753 | -50.36097 | 5555 ft | 134 kts | 338° |
| 2026-05-07 02:01 | -26.07895 | -50.36500 | 5864 ft | 134 kts | 338° |
| 2026-05-07 02:02 | -26.07035 | -50.36901 | 6170 ft | 134 kts | 339° |
| 2026-05-07 02:02 | -26.06186 | -50.37300 | 6499 ft | 134 kts | 338° |
| 2026-05-07 02:02 | -26.05279 | -50.37723 | 6627 ft | 148 kts | 339° |
| 2026-05-07 02:02 | -26.04299 | -50.38175 | 6645 ft | 160 kts | 339° |
| 2026-05-07 02:03 | -26.03239 | -50.38667 | 6635 ft | 169 kts | 338° |
| 2026-05-07 02:03 | -26.02145 | -50.39180 | 6638 ft | 172 kts | 338° |
| 2026-05-07 02:03 | -26.01038 | -50.39699 | 6631 ft | 175 kts | 338° |
| 2026-05-07 02:03 | -25.99916 | -50.40224 | 6632 ft | 175 kts | 338° |
| 2026-05-07 02:04 | -25.98795 | -50.40749 | 6631 ft | 175 kts | 338° |
| 2026-05-07 02:04 | -25.97676 | -50.41272 | 6631 ft | 174 kts | 339° |
| 2026-05-07 02:04 | -25.96555 | -50.41801 | 6628 ft | 175 kts | 338° |
| 2026-05-07 02:04 | -25.95429 | -50.42323 | 6628 ft | 175 kts | 339° |
| 2026-05-07 02:05 | -25.94308 | -50.42847 | 6631 ft | 177 kts | 338° |
| 2026-05-07 02:05 | -25.93174 | -50.43381 | 6628 ft | 177 kts | 339° |
| 2026-05-07 02:05 | -25.92046 | -50.43902 | 6629 ft | 175 kts | 339° |
| 2026-05-07 02:05 | -25.90925 | -50.44428 | 6627 ft | 175 kts | 339° |
| 2026-05-07 02:06 | -25.89799 | -50.44957 | 6632 ft | 177 kts | 339° |
| 2026-05-07 02:06 | -25.88666 | -50.45484 | 6638 ft | 177 kts | 339° |
| 2026-05-07 02:06 | -25.87524 | -50.46013 | 6632 ft | 178 kts | 339° |
| 2026-05-07 02:06 | -25.86384 | -50.46544 | 6637 ft | 179 kts | 338° |
| 2026-05-07 02:07 | -25.85267 | -50.47067 | 6629 ft | 179 kts | 339° |
| 2026-05-07 02:07 | -25.82962 | -50.48141 | 6625 ft | 178 kts | 339° |
| 2026-05-07 02:07 | -25.81821 | -50.48675 | 6623 ft | 178 kts | 339° |
| 2026-05-07 02:08 | -25.80679 | -50.49203 | 6624 ft | 177 kts | 339° |
| 2026-05-07 02:08 | -25.79547 | -50.49737 | 6619 ft | 176 kts | 338° |
| 2026-05-07 02:08 | -25.78418 | -50.50261 | 6623 ft | 176 kts | 339° |
| 2026-05-07 02:08 | -25.77288 | -50.50785 | 6616 ft | 177 kts | 338° |
| 2026-05-07 02:09 | -25.76159 | -50.51317 | 6619 ft | 176 kts | 339° |
| 2026-05-07 02:09 | -25.75028 | -50.51836 | 6621 ft | 176 kts | 339° |
| 2026-05-07 02:09 | -25.73897 | -50.52366 | 6625 ft | 176 kts | 339° |
| 2026-05-07 02:09 | -25.72765 | -50.52895 | 6623 ft | 176 kts | 339° |
| 2026-05-07 02:10 | -25.71648 | -50.53407 | 6627 ft | 176 kts | 339° |
| 2026-05-07 02:10 | -25.70525 | -50.53927 | 6622 ft | 175 kts | 339° |
| 2026-05-07 02:10 | -25.69398 | -50.54455 | 6612 ft | 176 kts | 339° |
| 2026-05-07 02:10 | -25.68278 | -50.54980 | 6622 ft | 174 kts | 339° |
| 2026-05-07 02:11 | -25.67167 | -50.55495 | 6618 ft | 174 kts | 339° |
| 2026-05-07 02:11 | -25.66055 | -50.56013 | 6628 ft | 173 kts | 339° |
| 2026-05-07 02:11 | -25.64938 | -50.56528 | 6622 ft | 174 kts | 339° |
| 2026-05-07 02:11 | -25.63819 | -50.57044 | 6620 ft | 174 kts | 339° |
| 2026-05-07 02:12 | -25.62708 | -50.57567 | 6623 ft | 173 kts | 339° |
| 2026-05-07 02:12 | -25.61594 | -50.58086 | 6628 ft | 175 kts | 339° |
| 2026-05-07 02:12 | -25.60470 | -50.58605 | 6623 ft | 174 kts | 339° |
| 2026-05-07 02:12 | -25.59353 | -50.59125 | 6624 ft | 174 kts | 339° |
| 2026-05-07 02:13 | -25.58237 | -50.59644 | 6629 ft | 174 kts | 339° |
| 2026-05-07 02:13 | -25.57108 | -50.60146 | 6633 ft | 176 kts | 339° |
| 2026-05-07 02:13 | -25.55982 | -50.60686 | 6629 ft | 176 kts | 338° |
| 2026-05-07 02:13 | -25.54858 | -50.61215 | 6632 ft | 175 kts | 339° |
| 2026-05-07 02:14 | -25.53731 | -50.61735 | 6625 ft | 175 kts | 339° |
| 2026-05-07 02:14 | -25.52607 | -50.62251 | 6622 ft | 174 kts | 339° |
| 2026-05-07 02:14 | -25.51480 | -50.62778 | 6628 ft | 177 kts | 339° |
| 2026-05-07 02:14 | -25.50347 | -50.63308 | 6626 ft | 176 kts | 339° |
| 2026-05-07 02:15 | -25.49211 | -50.63828 | 6630 ft | 177 kts | 339° |
| 2026-05-07 02:15 | -25.48074 | -50.64355 | 6630 ft | 177 kts | 339° |
| 2026-05-07 02:15 | -25.46941 | -50.64889 | 6634 ft | 177 kts | 335° |
| 2026-05-07 02:15 | -25.45963 | -50.65740 | 6628 ft | 180 kts | 317° |
| 2026-05-07 02:16 | -25.45080 | -50.66714 | 6627 ft | 180 kts | 319° |
| 2026-05-07 02:16 | -25.44176 | -50.67668 | 6623 ft | 179 kts | 320° |
| 2026-05-07 02:16 | -25.43273 | -50.68622 | 6626 ft | 180 kts | 319° |
| 2026-05-07 02:16 | -25.42360 | -50.69587 | 6626 ft | 181 kts | 319° |
| 2026-05-07 02:17 | -25.41454 | -50.70556 | 6630 ft | 182 kts | 319° |
| 2026-05-07 02:17 | -25.40539 | -50.71519 | 6628 ft | 181 kts | 319° |
| 2026-05-07 02:17 | -25.39639 | -50.72482 | 6627 ft | 180 kts | 319° |
| 2026-05-07 02:17 | -25.38737 | -50.73446 | 6627 ft | 180 kts | 319° |
| 2026-05-07 02:18 | -25.37830 | -50.74401 | 6627 ft | 181 kts | 319° |
| 2026-05-07 02:18 | -25.36929 | -50.75362 | 6633 ft | 180 kts | 319° |
| 2026-05-07 02:18 | -25.36021 | -50.76325 | 6627 ft | 181 kts | 319° |
| 2026-05-07 02:18 | -25.35115 | -50.77282 | 6633 ft | 180 kts | 319° |
| 2026-05-07 02:19 | -25.34211 | -50.78246 | 6630 ft | 182 kts | 319° |
| 2026-05-07 02:19 | -25.33300 | -50.79218 | 6626 ft | 182 kts | 319° |
| 2026-05-07 02:19 | -25.32389 | -50.80181 | 6632 ft | 182 kts | 319° |
| 2026-05-07 02:19 | -25.31475 | -50.81153 | 6626 ft | 183 kts | 319° |
| 2026-05-07 02:20 | -25.30564 | -50.82126 | 6631 ft | 183 kts | 319° |
| 2026-05-07 02:20 | -25.29639 | -50.83095 | 6632 ft | 183 kts | 320° |
| 2026-05-07 02:20 | -25.29028 | -50.83740 | 6635 ft | 184 kts | 319° |
| 2026-05-07 02:20 | -25.27800 | -50.85047 | 6633 ft | 183 kts | 320° |
| 2026-05-07 02:21 | -25.26887 | -50.85997 | 6626 ft | 182 kts | 319° |
| 2026-05-07 02:21 | -25.25986 | -50.86973 | 6624 ft | 181 kts | 319° |
| 2026-05-07 02:21 | -25.25083 | -50.87929 | 6614 ft | 180 kts | 319° |
| 2026-05-07 02:21 | -25.24183 | -50.88879 | 6620 ft | 179 kts | 320° |
| 2026-05-07 02:22 | -25.23588 | -50.89506 | 6618 ft | 178 kts | 320° |
| 2026-05-07 02:22 | -25.22696 | -50.90453 | 6617 ft | 178 kts | 319° |
| 2026-05-07 02:22 | -25.21799 | -50.91406 | 6615 ft | 179 kts | 320° |
| 2026-05-07 02:22 | -25.20898 | -50.92364 | 6620 ft | 180 kts | 320° |
| 2026-05-07 02:23 | -25.19990 | -50.93314 | 6620 ft | 181 kts | 320° |
| 2026-05-07 02:23 | -25.19082 | -50.94276 | 6618 ft | 181 kts | 320° |
| 2026-05-07 02:23 | -25.18172 | -50.95244 | 6620 ft | 182 kts | 319° |
| 2026-05-07 02:23 | -25.17266 | -50.96214 | 6628 ft | 182 kts | 318° |
| 2026-05-07 02:24 | -25.16350 | -50.97179 | 6621 ft | 182 kts | 320° |
| 2026-05-07 02:24 | -25.15424 | -50.98144 | 6631 ft | 184 kts | 320° |
| 2026-05-07 02:24 | -25.14504 | -50.99117 | 6625 ft | 182 kts | 319° |
| 2026-05-07 02:24 | -25.13595 | -51.00082 | 6625 ft | 182 kts | 319° |
| 2026-05-07 02:25 | -25.12681 | -51.01046 | 6619 ft | 182 kts | 319° |
| 2026-05-07 02:25 | -25.11796 | -51.01975 | 6627 ft | 184 kts | 320° |
| 2026-05-07 02:25 | -25.10834 | -51.02984 | 6626 ft | 185 kts | 319° |
| 2026-05-07 02:25 | -25.09910 | -51.03971 | 6621 ft | 183 kts | 320° |
| 2026-05-07 02:26 | -25.08988 | -51.04935 | 6623 ft | 183 kts | 319° |
| 2026-05-07 02:26 | -25.08066 | -51.05909 | 6624 ft | 184 kts | 319° |
| 2026-05-07 02:26 | -25.07144 | -51.06884 | 6620 ft | 183 kts | 319° |
| 2026-05-07 02:26 | -25.06233 | -51.07854 | 6628 ft | 182 kts | 319° |
| 2026-05-07 02:27 | -25.05314 | -51.08820 | 6627 ft | 183 kts | 319° |
| 2026-05-07 02:27 | -25.04391 | -51.09786 | 6626 ft | 183 kts | 320° |
| 2026-05-07 02:27 | -25.03466 | -51.10758 | 6622 ft | 184 kts | 320° |
| 2026-05-07 02:27 | -25.02548 | -51.11732 | 6618 ft | 183 kts | 319° |
| 2026-05-07 02:28 | -25.01629 | -51.12701 | 6622 ft | 183 kts | 320° |
| 2026-05-07 02:28 | -25.00701 | -51.13666 | 6620 ft | 184 kts | 319° |
| 2026-05-07 02:28 | -24.99782 | -51.14641 | 6621 ft | 183 kts | 319° |
| 2026-05-07 02:28 | -24.98864 | -51.15612 | 6618 ft | 183 kts | 319° |
| 2026-05-07 02:29 | -24.97940 | -51.16573 | 6613 ft | 182 kts | 319° |
| 2026-05-07 02:29 | -24.97030 | -51.17543 | 6622 ft | 182 kts | 319° |
| 2026-05-07 02:29 | -24.96109 | -51.18505 | 6621 ft | 183 kts | 320° |
| 2026-05-07 02:29 | -24.95204 | -51.19456 | 6619 ft | 182 kts | 319° |
| 2026-05-07 02:30 | -24.94285 | -51.20428 | 6616 ft | 183 kts | 320° |
| 2026-05-07 02:30 | -24.93352 | -51.21408 | 6617 ft | 183 kts | 320° |
| 2026-05-07 02:30 | -24.92452 | -51.22357 | 6610 ft | 180 kts | 320° |
| 2026-05-07 02:30 | -24.91539 | -51.23322 | 6602 ft | 185 kts | 319° |
| 2026-05-07 02:31 | -24.90584 | -51.24315 | 6605 ft | 186 kts | 320° |
| 2026-05-07 02:31 | -24.89657 | -51.25280 | 6608 ft | 186 kts | 319° |
| 2026-05-07 02:31 | -24.88733 | -51.26266 | 6610 ft | 185 kts | 319° |
| 2026-05-07 02:31 | -24.87807 | -51.27241 | 6606 ft | 184 kts | 320° |
| 2026-05-07 02:32 | -24.86878 | -51.28202 | 6605 ft | 182 kts | 320° |
| 2026-05-07 02:32 | -24.85963 | -51.29163 | 6605 ft | 182 kts | 319° |
| 2026-05-07 02:32 | -24.85047 | -51.30129 | 6604 ft | 182 kts | 320° |
| 2026-05-07 02:32 | -24.84130 | -51.31098 | 6596 ft | 182 kts | 320° |
| 2026-05-07 02:33 | -24.83210 | -51.32053 | 6609 ft | 182 kts | 320° |
| 2026-05-07 02:33 | -24.82294 | -51.33013 | 6614 ft | 182 kts | 319° |
| 2026-05-07 02:33 | -24.81380 | -51.33979 | 6602 ft | 182 kts | 320° |
| 2026-05-07 02:33 | -24.80464 | -51.34940 | 6597 ft | 182 kts | 320° |
| 2026-05-07 02:34 | -24.79552 | -51.35897 | 6606 ft | 181 kts | 320° |
| 2026-05-07 02:34 | -24.78643 | -51.36847 | 6605 ft | 180 kts | 320° |
| 2026-05-07 02:34 | -24.77744 | -51.37789 | 6609 ft | 183 kts | 320° |
| 2026-05-07 02:34 | -24.76810 | -51.38763 | 6607 ft | 182 kts | 320° |
| 2026-05-07 02:35 | -24.75890 | -51.39718 | 6605 ft | 182 kts | 321° |
| 2026-05-07 02:35 | -24.74978 | -51.40673 | 6599 ft | 181 kts | 320° |
| 2026-05-07 02:35 | -24.74072 | -51.41627 | 6602 ft | 180 kts | 320° |
| 2026-05-07 02:35 | -24.73167 | -51.42581 | 6610 ft | 180 kts | 320° |
| 2026-05-07 02:36 | -24.72257 | -51.43534 | 6605 ft | 181 kts | 320° |
| 2026-05-07 02:36 | -24.71339 | -51.44493 | 6601 ft | 184 kts | 320° |
| 2026-05-07 02:36 | -24.70406 | -51.45457 | 6607 ft | 185 kts | 321° |
| 2026-05-07 02:36 | -24.69477 | -51.46426 | 6623 ft | 184 kts | 322° |
| 2026-05-07 02:37 | -24.68551 | -51.47401 | 6602 ft | 183 kts | 320° |
| 2026-05-07 02:37 | -24.67631 | -51.48370 | 6601 ft | 183 kts | 321° |
| 2026-05-07 02:37 | -24.66714 | -51.49315 | 6595 ft | 181 kts | 320° |
| 2026-05-07 02:37 | -24.65816 | -51.50272 | 6595 ft | 179 kts | 320° |
| 2026-05-07 02:38 | -24.64911 | -51.51210 | 6586 ft | 180 kts | 320° |
| 2026-05-07 02:38 | -24.64004 | -51.52150 | 6594 ft | 179 kts | 320° |
| 2026-05-07 02:38 | -24.63102 | -51.53095 | 6591 ft | 178 kts | 320° |
| 2026-05-07 02:38 | -24.62201 | -51.54033 | 6595 ft | 179 kts | 321° |
| 2026-05-07 02:39 | -24.61298 | -51.54974 | 6599 ft | 179 kts | 321° |
| 2026-05-07 02:39 | -24.60398 | -51.55915 | 6590 ft | 178 kts | 321° |
| 2026-05-07 02:39 | -24.59506 | -51.56846 | 6594 ft | 177 kts | 321° |
| 2026-05-07 02:39 | -24.58614 | -51.57775 | 6591 ft | 176 kts | 320° |
| 2026-05-07 02:40 | -24.57725 | -51.58703 | 6597 ft | 176 kts | 321° |
| 2026-05-07 02:40 | -24.56835 | -51.59631 | 6596 ft | 177 kts | 321° |
| 2026-05-07 02:40 | -24.55941 | -51.60563 | 6594 ft | 177 kts | 321° |
| 2026-05-07 02:40 | -24.55048 | -51.61494 | 6596 ft | 177 kts | 321° |
| 2026-05-07 02:41 | -24.54151 | -51.62426 | 6592 ft | 177 kts | 321° |
| 2026-05-07 02:41 | -24.53260 | -51.63354 | 6590 ft | 176 kts | 321° |
| 2026-05-07 02:41 | -24.52376 | -51.64275 | 6582 ft | 175 kts | 321° |
| 2026-05-07 02:41 | -24.51502 | -51.65214 | 6592 ft | 178 kts | 315° |
| 2026-05-07 02:42 | -24.50729 | -51.66291 | 6589 ft | 179 kts | 313° |
| 2026-05-07 02:42 | -24.49958 | -51.67360 | 6585 ft | 178 kts | 314° |
| 2026-05-07 02:42 | -24.49177 | -51.68415 | 6584 ft | 178 kts | 314° |
| 2026-05-07 02:42 | -24.48399 | -51.69467 | 6592 ft | 177 kts | 313° |
| 2026-05-07 02:43 | -24.47625 | -51.70524 | 6590 ft | 179 kts | 313° |
| 2026-05-07 02:43 | -24.46848 | -51.71591 | 6588 ft | 179 kts | 314° |
| 2026-05-07 02:43 | -24.46067 | -51.72652 | 6586 ft | 184 kts | 313° |
| 2026-05-07 02:43 | -24.45268 | -51.73744 | 6595 ft | 184 kts | 313° |
| 2026-05-07 02:44 | -24.44473 | -51.74833 | 6587 ft | 182 kts | 314° |
| 2026-05-07 02:44 | -24.43676 | -51.75904 | 6588 ft | 180 kts | 314° |
| 2026-05-07 02:44 | -24.42887 | -51.76976 | 6589 ft | 181 kts | 313° |
| 2026-05-07 02:44 | -24.42099 | -51.78057 | 6583 ft | 182 kts | 314° |
| 2026-05-07 02:45 | -24.41302 | -51.79138 | 6598 ft | 183 kts | 314° |
| 2026-05-07 02:45 | -24.40503 | -51.80230 | 6585 ft | 183 kts | 314° |
| 2026-05-07 02:45 | -24.39707 | -51.81314 | 6592 ft | 182 kts | 313° |
| 2026-05-07 02:45 | -24.38916 | -51.82388 | 6581 ft | 180 kts | 314° |
| 2026-05-07 02:46 | -24.38127 | -51.83454 | 6585 ft | 180 kts | 314° |
| 2026-05-07 02:46 | -24.37331 | -51.84528 | 6581 ft | 181 kts | 314° |
| 2026-05-07 02:46 | -24.36542 | -51.85608 | 6577 ft | 181 kts | 314° |
| 2026-05-07 02:46 | -24.35753 | -51.86686 | 6586 ft | 182 kts | 314° |
| 2026-05-07 02:47 | -24.34963 | -51.87762 | 6580 ft | 180 kts | 314° |
| 2026-05-07 02:47 | -24.34178 | -51.88828 | 6582 ft | 180 kts | 314° |
| 2026-05-07 02:47 | -24.33393 | -51.89891 | 6576 ft | 179 kts | 313° |
| 2026-05-07 02:47 | -24.32614 | -51.90958 | 6571 ft | 179 kts | 313° |
| 2026-05-07 02:48 | -24.31830 | -51.92012 | 6576 ft | 177 kts | 314° |
| 2026-05-07 02:48 | -24.31056 | -51.93068 | 6580 ft | 177 kts | 314° |
| 2026-05-07 02:48 | -24.30272 | -51.94121 | 6576 ft | 178 kts | 314° |
| 2026-05-07 02:48 | -24.29489 | -51.95182 | 6584 ft | 180 kts | 313° |
| 2026-05-07 02:49 | -24.28704 | -51.96252 | 6572 ft | 180 kts | 314° |
| 2026-05-07 02:49 | -24.27914 | -51.97323 | 6574 ft | 181 kts | 314° |
| 2026-05-07 02:49 | -24.27121 | -51.98395 | 6573 ft | 182 kts | 314° |
| 2026-05-07 02:49 | -24.26330 | -51.99471 | 6571 ft | 180 kts | 313° |
| 2026-05-07 02:50 | -24.25544 | -52.00533 | 6571 ft | 180 kts | 314° |
| 2026-05-07 02:50 | -24.24754 | -52.01600 | 6570 ft | 180 kts | 314° |
| 2026-05-07 02:50 | -24.23962 | -52.02669 | 6571 ft | 180 kts | 314° |
| 2026-05-07 02:50 | -24.23183 | -52.03728 | 6566 ft | 177 kts | 314° |
| 2026-05-07 02:51 | -24.22412 | -52.04778 | 6572 ft | 177 kts | 314° |
| 2026-05-07 02:51 | -24.21633 | -52.05834 | 6563 ft | 178 kts | 314° |
| 2026-05-07 02:51 | -24.20851 | -52.06886 | 6568 ft | 178 kts | 314° |
| 2026-05-07 02:51 | -24.20073 | -52.07942 | 6558 ft | 179 kts | 314° |
| 2026-05-07 02:52 | -24.19294 | -52.08999 | 6555 ft | 177 kts | 314° |
| 2026-05-07 02:52 | -24.18517 | -52.10049 | 6566 ft | 178 kts | 313° |
| 2026-05-07 02:52 | -24.17739 | -52.11109 | 6554 ft | 178 kts | 314° |
| 2026-05-07 02:52 | -24.16960 | -52.12160 | 6552 ft | 177 kts | 314° |
| 2026-05-07 02:53 | -24.16185 | -52.13201 | 6556 ft | 176 kts | 314° |
| 2026-05-07 02:53 | -24.15427 | -52.14222 | 6560 ft | 175 kts | 314° |
| 2026-05-07 02:53 | -24.14649 | -52.15273 | 6565 ft | 176 kts | 314° |
| 2026-05-07 02:53 | -24.13872 | -52.16329 | 6559 ft | 179 kts | 314° |
| 2026-05-07 02:54 | -24.13083 | -52.17384 | 6564 ft | 179 kts | 314° |
| 2026-05-07 02:54 | -24.12301 | -52.18440 | 6564 ft | 179 kts | 314° |
| 2026-05-07 02:54 | -24.11516 | -52.19490 | 6558 ft | 177 kts | 314° |
| 2026-05-07 02:54 | -24.10752 | -52.20526 | 6562 ft | 177 kts | 313° |
| 2026-05-07 02:55 | -24.09981 | -52.21582 | 6558 ft | 178 kts | 313° |
| 2026-05-07 02:55 | -24.09200 | -52.22637 | 6563 ft | 179 kts | 314° |
| 2026-05-07 02:55 | -24.08408 | -52.23696 | 6556 ft | 179 kts | 314° |
| 2026-05-07 02:55 | -24.07625 | -52.24750 | 6553 ft | 178 kts | 314° |
| 2026-05-07 02:56 | -24.06846 | -52.25798 | 6566 ft | 179 kts | 315° |
| 2026-05-07 02:56 | -24.06043 | -52.26870 | 6568 ft | 185 kts | 314° |
| 2026-05-07 02:56 | -24.05221 | -52.27973 | 6562 ft | 187 kts | 314° |
| 2026-05-07 02:56 | -24.04411 | -52.29081 | 6566 ft | 186 kts | 314° |
| 2026-05-07 02:57 | -24.03601 | -52.30171 | 6550 ft | 184 kts | 314° |
| 2026-05-07 02:57 | -24.02800 | -52.31248 | 6549 ft | 181 kts | 314° |
| 2026-05-07 02:57 | -24.02011 | -52.32316 | 6549 ft | 180 kts | 314° |
| 2026-05-07 02:57 | -24.01215 | -52.33382 | 6550 ft | 182 kts | 314° |
| 2026-05-07 02:58 | -24.00424 | -52.34454 | 6550 ft | 180 kts | 315° |
| 2026-05-07 02:58 | -23.99566 | -52.35426 | 6546 ft | 177 kts | 326° |
| 2026-05-07 02:58 | -23.98597 | -52.36258 | 6545 ft | 178 kts | 326° |
| 2026-05-07 02:58 | -23.97644 | -52.37123 | 6544 ft | 178 kts | 325° |
| 2026-05-07 02:59 | -23.96697 | -52.37981 | 6547 ft | 176 kts | 325° |
| 2026-05-07 02:59 | -23.95751 | -52.38829 | 6543 ft | 177 kts | 326° |
| 2026-05-07 02:59 | -23.94797 | -52.39680 | 6558 ft | 178 kts | 326° |
| 2026-05-07 02:59 | -23.93840 | -52.40541 | 6551 ft | 177 kts | 325° |
| 2026-05-07 03:00 | -23.92890 | -52.41392 | 6553 ft | 177 kts | 326° |
| 2026-05-07 03:00 | -23.91939 | -52.42241 | 6555 ft | 177 kts | 325° |
| 2026-05-07 03:00 | -23.90994 | -52.43098 | 6555 ft | 176 kts | 325° |
| 2026-05-07 03:00 | -23.90046 | -52.43942 | 6549 ft | 175 kts | 326° |
| 2026-05-07 03:01 | -23.89105 | -52.44780 | 6551 ft | 176 kts | 325° |
| 2026-05-07 03:01 | -23.88155 | -52.45633 | 6550 ft | 177 kts | 325° |
| 2026-05-07 03:01 | -23.87198 | -52.46488 | 6541 ft | 178 kts | 325° |
| 2026-05-07 03:01 | -23.86252 | -52.47341 | 6546 ft | 175 kts | 326° |
| 2026-05-07 03:02 | -23.85307 | -52.48183 | 6553 ft | 175 kts | 326° |
| 2026-05-07 03:02 | -23.84373 | -52.49020 | 6546 ft | 176 kts | 325° |
| 2026-05-07 03:02 | -23.83423 | -52.49872 | 6544 ft | 178 kts | 326° |
| 2026-05-07 03:02 | -23.82467 | -52.50720 | 6553 ft | 177 kts | 326° |
| 2026-05-07 03:03 | -23.81496 | -52.51585 | 6553 ft | 178 kts | 325° |
| 2026-05-07 03:03 | -23.80533 | -52.52442 | 6554 ft | 178 kts | 326° |
| 2026-05-07 03:03 | -23.79575 | -52.53304 | 6543 ft | 177 kts | 325° |
| 2026-05-07 03:03 | -23.78642 | -52.54143 | 6544 ft | 175 kts | 326° |
| 2026-05-07 03:04 | -23.77698 | -52.54982 | 6545 ft | 175 kts | 325° |
| 2026-05-07 03:04 | -23.76754 | -52.55832 | 6550 ft | 176 kts | 326° |
| 2026-05-07 03:04 | -23.75810 | -52.56677 | 6547 ft | 175 kts | 325° |
| 2026-05-07 03:04 | -23.74862 | -52.57523 | 6540 ft | 176 kts | 326° |
| 2026-05-07 03:05 | -23.73917 | -52.58369 | 6539 ft | 175 kts | 325° |
| 2026-05-07 03:05 | -23.72972 | -52.59210 | 6531 ft | 175 kts | 326° |
| 2026-05-07 03:05 | -23.72029 | -52.60054 | 6541 ft | 176 kts | 325° |
| 2026-05-07 03:05 | -23.71084 | -52.60898 | 6540 ft | 176 kts | 326° |
| 2026-05-07 03:06 | -23.70132 | -52.61734 | 6546 ft | 176 kts | 326° |
| 2026-05-07 03:06 | -23.69150 | -52.62518 | 6540 ft | 174 kts | 336° |
| 2026-05-07 03:06 | -23.68022 | -52.62931 | 6539 ft | 170 kts | 352° |
| 2026-05-07 03:06 | -23.66848 | -52.62966 | 6537 ft | 168 kts | 8° |
| 2026-05-07 03:07 | -23.65703 | -52.62694 | 6540 ft | 168 kts | 14° |
| 2026-05-07 03:07 | -23.64557 | -52.62415 | 6541 ft | 170 kts | 13° |
| 2026-05-07 03:07 | -23.63407 | -52.62135 | 6534 ft | 168 kts | 13° |
| 2026-05-07 03:07 | -23.62268 | -52.61857 | 6546 ft | 168 kts | 13° |
| 2026-05-07 03:08 | -23.61129 | -52.61576 | 6541 ft | 167 kts | 13° |
| 2026-05-07 03:08 | -23.59993 | -52.61298 | 6531 ft | 167 kts | 13° |
| 2026-05-07 03:08 | -23.59243 | -52.61114 | 6538 ft | 167 kts | 13° |
| 2026-05-07 03:08 | -23.58110 | -52.60838 | 6536 ft | 167 kts | 13° |
| 2026-05-07 03:09 | -23.56976 | -52.60565 | 6534 ft | 167 kts | 13° |
| 2026-05-07 03:09 | -23.55846 | -52.60288 | 6534 ft | 167 kts | 13° |
| 2026-05-07 03:09 | -23.54712 | -52.60011 | 6533 ft | 167 kts | 13° |
| 2026-05-07 03:09 | -23.53576 | -52.59724 | 6542 ft | 168 kts | 13° |
| 2026-05-07 03:10 | -23.52431 | -52.59449 | 6536 ft | 168 kts | 13° |
| 2026-05-07 03:10 | -23.51287 | -52.59176 | 6535 ft | 168 kts | 13° |
| 2026-05-07 03:10 | -23.50148 | -52.58898 | 6536 ft | 168 kts | 13° |
| 2026-05-07 03:10 | -23.49009 | -52.58618 | 6538 ft | 168 kts | 13° |
| 2026-05-07 03:11 | -23.47868 | -52.58339 | 6543 ft | 169 kts | 13° |
| 2026-05-07 03:11 | -23.46345 | -52.57965 | 6534 ft | 169 kts | 13° |
| 2026-05-07 03:11 | -23.45570 | -52.57776 | 6534 ft | 169 kts | 13° |
| 2026-05-07 03:11 | -23.44420 | -52.57496 | 6535 ft | 169 kts | 13° |
| 2026-05-07 03:12 | -23.43277 | -52.57215 | 6537 ft | 168 kts | 13° |
| 2026-05-07 03:12 | -23.42135 | -52.56937 | 6534 ft | 168 kts | 13° |
| 2026-05-07 03:12 | -23.40991 | -52.56659 | 6535 ft | 168 kts | 13° |
| 2026-05-07 03:12 | -23.39849 | -52.56378 | 6537 ft | 169 kts | 13° |
| 2026-05-07 03:13 | -23.38697 | -52.56099 | 6539 ft | 170 kts | 13° |
| 2026-05-07 03:13 | -23.37551 | -52.55819 | 6535 ft | 169 kts | 13° |
| 2026-05-07 03:13 | -23.36403 | -52.55538 | 6535 ft | 169 kts | 13° |
| 2026-05-07 03:13 | -23.35268 | -52.55261 | 6537 ft | 169 kts | 13° |
| 2026-05-07 03:14 | -23.34122 | -52.54982 | 6541 ft | 169 kts | 13° |
| 2026-05-07 03:14 | -23.32973 | -52.54702 | 6536 ft | 169 kts | 13° |
| 2026-05-07 03:14 | -23.30687 | -52.54144 | 6532 ft | 168 kts | 13° |
| 2026-05-07 03:15 | -23.29550 | -52.53868 | 6532 ft | 167 kts | 13° |
| 2026-05-07 03:15 | -23.28404 | -52.53590 | 6537 ft | 170 kts | 13° |
| 2026-05-07 03:15 | -23.27242 | -52.53307 | 6543 ft | 172 kts | 13° |
| 2026-05-07 03:15 | -23.26064 | -52.53018 | 6532 ft | 170 kts | 13° |
| 2026-05-07 03:16 | -23.24910 | -52.52740 | 6535 ft | 170 kts | 13° |
| 2026-05-07 03:16 | -23.23764 | -52.52460 | 6536 ft | 168 kts | 13° |
| 2026-05-07 03:16 | -23.22620 | -52.52181 | 6534 ft | 169 kts | 13° |
| 2026-05-07 03:16 | -23.21473 | -52.51902 | 6539 ft | 169 kts | 13° |
| 2026-05-07 03:17 | -23.20337 | -52.51623 | 6535 ft | 170 kts | 13° |
| 2026-05-07 03:17 | -23.19188 | -52.51346 | 6536 ft | 168 kts | 13° |
| 2026-05-07 03:17 | -23.18043 | -52.51068 | 6533 ft | 170 kts | 13° |
| 2026-05-07 03:17 | -23.16896 | -52.50787 | 6535 ft | 169 kts | 13° |
| 2026-05-07 03:18 | -23.15746 | -52.50503 | 6533 ft | 169 kts | 14° |
| 2026-05-07 03:18 | -23.14596 | -52.50221 | 6537 ft | 169 kts | 13° |
| 2026-05-07 03:18 | -23.13445 | -52.49950 | 6533 ft | 169 kts | 13° |
| 2026-05-07 03:18 | -23.12298 | -52.49676 | 6536 ft | 168 kts | 13° |
| 2026-05-07 03:19 | -23.11159 | -52.49397 | 6536 ft | 168 kts | 13° |
| 2026-05-07 03:19 | -23.10015 | -52.49118 | 6534 ft | 169 kts | 13° |
| 2026-05-07 03:19 | -23.08869 | -52.48841 | 6535 ft | 169 kts | 13° |
| 2026-05-07 03:19 | -23.07720 | -52.48560 | 6534 ft | 170 kts | 13° |
| 2026-05-07 03:20 | -23.06567 | -52.48279 | 6530 ft | 169 kts | 13° |
| 2026-05-07 03:20 | -23.05423 | -52.48004 | 6535 ft | 169 kts | 13° |
| 2026-05-07 03:20 | -23.04275 | -52.47723 | 6531 ft | 169 kts | 13° |
| 2026-05-07 03:20 | -23.03127 | -52.47444 | 6536 ft | 169 kts | 13° |
| 2026-05-07 03:21 | -23.01973 | -52.47163 | 6539 ft | 171 kts | 13° |
| 2026-05-07 03:21 | -23.00816 | -52.46884 | 6540 ft | 170 kts | 13° |
| 2026-05-07 03:21 | -22.99658 | -52.46604 | 6537 ft | 171 kts | 13° |
| 2026-05-07 03:21 | -22.98495 | -52.46323 | 6532 ft | 171 kts | 13° |
| 2026-05-07 03:22 | -22.97335 | -52.46041 | 6535 ft | 171 kts | 13° |
| 2026-05-07 03:22 | -22.96169 | -52.45757 | 6530 ft | 172 kts | 14° |
| 2026-05-07 03:22 | -22.95001 | -52.45473 | 6532 ft | 172 kts | 13° |
| 2026-05-07 03:22 | -22.93843 | -52.45189 | 6536 ft | 171 kts | 14° |
| 2026-05-07 03:23 | -22.92679 | -52.44911 | 6539 ft | 172 kts | 13° |
| 2026-05-07 03:23 | -22.91515 | -52.44630 | 6533 ft | 170 kts | 14° |
| 2026-05-07 03:23 | -22.90361 | -52.44350 | 6538 ft | 170 kts | 14° |
| 2026-05-07 03:23 | -22.89201 | -52.44069 | 6535 ft | 171 kts | 13° |
| 2026-05-07 03:24 | -22.88034 | -52.43791 | 6538 ft | 172 kts | 14° |
| 2026-05-07 03:24 | -22.86865 | -52.43502 | 6541 ft | 173 kts | 14° |
| 2026-05-07 03:24 | -22.85696 | -52.43218 | 6539 ft | 172 kts | 14° |
| 2026-05-07 03:24 | -22.84524 | -52.42934 | 6538 ft | 172 kts | 14° |
| 2026-05-07 03:25 | -22.83358 | -52.42654 | 6530 ft | 170 kts | 13° |
| 2026-05-07 03:25 | -22.82205 | -52.42376 | 6529 ft | 170 kts | 14° |
| 2026-05-07 03:25 | -22.81055 | -52.42095 | 6531 ft | 169 kts | 14° |
| 2026-05-07 03:25 | -22.79905 | -52.41822 | 6530 ft | 170 kts | 14° |
| 2026-05-07 03:26 | -22.78749 | -52.41547 | 6532 ft | 170 kts | 14° |
| 2026-05-07 03:26 | -22.77588 | -52.41262 | 6535 ft | 172 kts | 14° |
| 2026-05-07 03:26 | -22.76417 | -52.40976 | 6528 ft | 172 kts | 14° |
| 2026-05-07 03:26 | -22.75250 | -52.40693 | 6538 ft | 172 kts | 13° |
| 2026-05-07 03:27 | -22.74092 | -52.40412 | 6535 ft | 172 kts | 13° |
| 2026-05-07 03:27 | -22.72917 | -52.40132 | 6531 ft | 174 kts | 14° |
| 2026-05-07 03:27 | -22.71737 | -52.39849 | 6530 ft | 174 kts | 14° |
| 2026-05-07 03:27 | -22.70565 | -52.39563 | 6533 ft | 173 kts | 14° |
| 2026-05-07 03:28 | -22.69395 | -52.39280 | 6531 ft | 172 kts | 13° |
| 2026-05-07 03:28 | -22.68233 | -52.39003 | 6531 ft | 171 kts | 14° |
| 2026-05-07 03:28 | -22.67069 | -52.38719 | 6536 ft | 172 kts | 14° |
| 2026-05-07 03:28 | -22.65893 | -52.38435 | 6539 ft | 173 kts | 14° |
| 2026-05-07 03:29 | -22.64718 | -52.38154 | 6529 ft | 172 kts | 14° |
| 2026-05-07 03:29 | -22.63556 | -52.37874 | 6530 ft | 170 kts | 14° |
| 2026-05-07 03:29 | -22.63107 | -52.37767 | 6527 ft | 170 kts | 14° |